首页
METAR-TAF:

METAR-TAF

机场 :

巴林国际机场

巴林, 巴林

纬度: 26-16N, 经度: 050-39E, 海拔: 2米

当前天气观测

该预报发布于19分钟前的02:30 UTC
风速20节,风向西转西北
温度 20°C
湿度 68%
气压 1014 hPa
能见度10公里或以上
1500米以下无云,无积雨云

METAR: OBBI 200230Z 30020KT CAVOK 20/14 Q1014 NOSIG

时间: 05:49 (02:49 UTC)

预报

该预报发布于3小时和49分钟前的23:00 UTC
预报有效从20日的 00点(UTC)到 21日的 06点(UTC)
风速17节,风向北转西北,有时为27节阵风
能見度: 8000
散云层高于1000英尺

TAF: OBBI 192300Z 2000/2106 33017G27KT 8000 SCT010

超过4000个机场的气象观测和天气预报(METAR&TAF报告)。

可查询的气象台以黄色和红色小点在地图上表示。

将鼠标移到小点上方,可查看气象台名称。

然后点击查看天气观测和预报。

如需切换地图:点击带黑十字的绿色按钮放大地图;点击带横线的绿色按钮缩小地图;或者点击绿色箭头查看邻近地区的地图。


METAR-TAF: